Time;durP1;ratioP1;P1;durP2;ratioP2;P2;SDS_P1;SDS_P2;PMS_P1;PMS_P2;Temp;Humidity;BMP_temperature;BMP_pressure;BME280_temperature;BME280_humidity;BME280_pressure;Samples;Min_cycle;Max_cycle;Signal;HPM_P1;HPM_P2
2022/08/22 00:00:21;;;;;;;;;;;;;;;;;;5051476;28;1075;-74
2022/08/22 00:02:52;;;;;;;;;;;;;;;;;;5033225;28;1287;-73
2022/08/22 00:05:23;;;;;;;;;;;;;;;;;;5050715;28;1325;-73
2022/08/22 00:07:51;;;;;;;;;;;;;;;;;;5051317;28;684;-73
2022/08/22 00:10:19;;;;;;;;;;;;;;;;;;5050815;28;1079;-74
2022/08/22 00:12:45;;;;;;;;;;;;;;;;;;5051086;28;984;-72
2022/08/22 00:15:12;;;;;;;;;;;;;;;;;;5050768;28;1316;-73
2022/08/22 00:17:40;;;;;;;;;;;;;;;;;;5050720;28;972;-72
2022/08/22 00:20:09;;;;;;;;;;;;;;;;;;5050664;28;1954;-74
2022/08/22 00:22:38;;;;;;;;;;;;;;;;;;5070817;28;972;-73
2022/08/22 00:25:10;;;;;;;;;;;;;;;;;;5070769;28;1405;-74
2022/08/22 00:27:38;;;;;;;;;;;;;;;;;;5053003;28;1032;-74
2022/08/22 00:30:06;;;;;;;;;;;;;;;;;;5070784;28;1125;-74
2022/08/22 00:32:33;;;;;;;;;;;;;;;;;;5070941;28;952;-74
2022/08/22 00:35:01;;;;;;;;;;;;;;;;;;5052778;28;1321;-74
2022/08/22 00:37:28;;;;;;;;;;;;;;;;;;5070947;28;1122;-74
2022/08/22 00:39:58;;;;;;;;;;;;;;;;;;5071096;28;1910;-73
2022/08/22 00:42:39;;;;;;;;;;;;;;;;;;5074232;28;695;-74
2022/08/22 00:45:15;;;;;;;;;;;;;;;;;;5057047;28;1439;-73
2022/08/22 00:47:46;;;;;;;;;;;;;;;;;;5074537;28;1060;-74
2022/08/22 00:50:33;;;;;;;;;;;;;;;;;;5056409;28;978;-73
2022/08/22 00:53:13;;;;;;;;;;;;;;;;;;5073885;28;980;-74
2022/08/22 00:55:49;;;;;;;;;;;;;;;;;;5056418;28;1567;-73
2022/08/22 00:58:31;;;;;;;;;;;;;;;;;;5073909;28;1975;-74
2022/08/22 01:01:00;;;;;;;;;;;;;;;;;;5074082;28;718;-73
2022/08/22 01:03:28;;;;;;;;;;;;;;;;;;5073795;28;1084;-74
2022/08/22 01:05:58;;;;;;;;;;;;;;;;;;5074084;28;1254;-74
2022/08/22 01:08:29;;;;;;;;;;;;;;;;;;5074139;28;857;-73
2022/08/22 01:11:02;;;;;;;;;;;;;;;;;;5073755;28;1116;-73
2022/08/22 01:13:36;;;;;;;;;;;;;;;;;;5073952;28;1095;-73
2022/08/22 01:16:04;;;;;;;;;;;;;;;;;;5073646;28;1353;-73
2022/08/22 01:18:40;;;;;;;;;;;;;;;;;;5073818;28;1975;-74
2022/08/22 01:21:31;;;;;;;;;;;;;;;;;;5073582;28;1056;-72
2022/08/22 01:24:13;;;;;;;;;;;;;;;;;;5055748;28;1262;-72
2022/08/22 01:26:50;;;;;;;;;;;;;;;;;;5073748;28;940;-74
2022/08/22 01:29:32;;;;;;;;;;;;;;;;;;5073623;28;1083;-73
2022/08/22 01:32:09;;;;;;;;;;;;;;;;;;5073500;28;1079;-74
2022/08/22 01:34:43;;;;;;;;;;;;;;;;;;5073858;28;1375;-73
2022/08/22 01:37:24;;;;;;;;;;;;;;;;;;5073475;28;1064;-73
2022/08/22 01:39:56;;;;;;;;;;;;;;;;;;5038928;28;1978;-75
2022/08/22 01:42:33;;;;;;;;;;;;;;;;;;5073200;28;1127;-73
2022/08/22 01:45:19;;;;;;;;;;;;;;;;;;5055300;28;1392;-74
2022/08/22 01:47:47;;;;;;;;;;;;;;;;;;5073614;28;1127;-74
2022/08/22 01:50:21;;;;;;;;;;;;;;;;;;5073252;28;1146;-73
2022/08/22 01:52:48;;;;;;;;;;;;;;;;;;5071853;28;1072;-74
2022/08/22 01:55:20;;;;;;;;;;;;;;;;;;5073012;28;1322;-73
2022/08/22 01:57:50;;;;;;;;;;;;;;;;;;5055166;28;872;-74
2022/08/22 02:00:20;;;;;;;;;;;;;;;;;;5054985;28;1918;-74
2022/08/22 02:02:50;;;;;;;;;;;;;;;;;;5072757;28;1055;-73
2022/08/22 02:05:22;;;;;;;;;;;;;;;;;;5072704;28;1380;-74
2022/08/22 02:07:49;;;;;;;;;;;;;;;;;;5073078;28;976;-74
2022/08/22 02:10:16;;;;;;;;;;;;;;;;;;5054645;28;1179;-74
2022/08/22 02:12:43;;;;;;;;;;;;;;;;;;5072621;28;786;-73
2022/08/22 02:15:14;;;;;;;;;;;;;;;;;;5072455;28;1295;-73
2022/08/22 02:17:48;;;;;;;;;;;;;;;;;;5072805;28;964;-74
2022/08/22 02:20:17;;;;;;;;;;;;;;;;;;5054712;28;1975;-72
2022/08/22 02:22:53;;;;;;;;;;;;;;;;;;5072517;28;1115;-73
2022/08/22 02:25:21;;;;;;;;;;;;;;;;;;5071983;28;1497;-74
2022/08/22 02:27:50;;;;;;;;;;;;;;;;;;5072705;28;818;-73
2022/08/22 02:30:17;;;;;;;;;;;;;;;;;;5054507;28;917;-73
2022/08/22 02:32:45;;;;;;;;;;;;;;;;;;5054073;28;1283;-73
2022/08/22 02:35:17;;;;;;;;;;;;;;;;;;5072246;28;1440;-74
2022/08/22 02:37:49;;;;;;;;;;;;;;;;;;5072521;28;999;-73
2022/08/22 02:40:20;;;;;;;;;;;;;;;;;;5071911;28;1971;-74
2022/08/22 02:42:48;;;;;;;;;;;;;;;;;;5072065;28;1059;-73
2022/08/22 02:45:22;;;;;;;;;;;;;;;;;;5071880;28;1298;-74
2022/08/22 02:47:50;;;;;;;;;;;;;;;;;;5072167;28;1063;-73
2022/08/22 02:50:17;;;;;;;;;;;;;;;;;;5071924;28;1076;-72
2022/08/22 02:52:47;;;;;;;;;;;;;;;;;;5071804;28;1253;-74
2022/08/22 02:55:14;;;;;;;;;;;;;;;;;;5071849;28;1391;-74
2022/08/22 02:57:43;;;;;;;;;;;;;;;;;;5071987;28;858;-74
2022/08/22 03:00:14;;;;;;;;;;;;;;;;;;5053878;28;1974;-73
2022/08/22 03:02:43;;;;;;;;;;;;;;;;;;5053674;28;1064;-73
2022/08/22 03:05:22;;;;;;;;;;;;;;;;;;5071304;28;1424;-73
2022/08/22 03:07:49;;;;;;;;;;;;;;;;;;5072071;28;1056;-74
2022/08/22 03:10:19;;;;;;;;;;;;;;;;;;5071492;28;1099;-72
2022/08/22 03:12:51;;;;;;;;;;;;;;;;;;5071804;28;969;-73
2022/08/22 03:15:19;;;;;;;;;;;;;;;;;;5071413;28;1336;-73
2022/08/22 03:17:47;;;;;;;;;;;;;;;;;;5053869;28;1488;-74
2022/08/22 03:20:14;;;;;;;;;;;;;;;;;;5053499;28;1910;-73
2022/08/22 03:22:42;;;;;;;;;;;;;;;;;;5053488;28;1159;-73
2022/08/22 03:25:11;;;;;;;;;;;;;;;;;;5071356;28;1316;-74
2022/08/22 03:27:39;;;;;;;;;;;;;;;;;;5071770;28;953;-73
2022/08/22 03:30:09;;;;;;;;;;;;;;;;;;5071463;28;1044;-74
2022/08/22 03:32:49;;;;;;;;;;;;;;;;;;5071257;28;1064;-74
2022/08/22 03:35:22;;;;;;;;;;;;;;;;;;5053308;28;1395;-74
2022/08/22 03:37:48;;;;;;;;;;;;;;;;;;5071479;28;1038;-74
2022/08/22 03:40:21;;;;;;;;;;;;;;;;;;5070968;28;1969;-73
2022/08/22 03:42:52;;;;;;;;;;;;;;;;;;5053341;28;851;-75
2022/08/22 03:45:34;;;;;;;;;;;;;;;;;;5069631;28;1422;-74
2022/08/22 03:48:07;;;;;;;;;;;;;;;;;;5057231;28;1757;-75
2022/08/22 03:50:46;;;;;;;;;;;;;;;;;;5059491;28;1540;-74
2022/08/22 03:53:26;;;;;;;;;;;;;;;;;;5065743;28;1387;-75
2022/08/22 03:56:12;;;;;;;;;;;;;;;;;;5059678;28;1411;-74
2022/08/22 03:58:45;;;;;;;;;;;;;;;;;;5061820;28;1060;-75
2022/08/22 04:01:35;;;;;;;;;;;;;;;;;;5063524;28;1914;-75
2022/08/22 04:04:11;;;;;;;;;;;;;;;;;;5062822;28;1520;-74
2022/08/22 04:06:46;;;;;;;;;;;;;;;;;;5089000;22;3681;-74
2022/08/22 04:09:19;;;;;;;;;;;;;;;;;;5072861;28;1361;-73
2022/08/22 04:11:50;;;;;;;;;;;;;;;;;;5091070;28;1020;-74
2022/08/22 04:14:21;;;;;;;;;;;;;;;;;;5091263;28;792;-74
2022/08/22 04:16:54;;;;;;;;;;;;;;;;;;5085841;28;1501;-74
2022/08/22 04:19:26;;;;;;;;;;;;;;;;;;5080678;28;1977;-74
2022/08/22 04:21:57;;;;;;;;;;;;;;;;;;5064835;28;1206;-74
2022/08/22 04:24:28;;;;;;;;;;;;;;;;;;5074841;28;1169;-74
2022/08/22 04:26:55;;;;;;;;;;;;;;;;;;5087235;28;1499;-74
2022/08/22 04:29:22;;;;;;;;;;;;;;;;;;5082875;28;1222;-74
2022/08/22 04:31:51;;;;;;;;;;;;;;;;;;5058835;28;1634;-74
2022/08/22 04:34:18;;;;;;;;;;;;;;;;;;5080098;28;1186;-74
2022/08/22 04:36:47;;;;;;;;;;;;;;;;;;5081638;28;1425;-74
2022/08/22 04:39:17;;;;;;;;;;;;;;;;;;5085604;28;1199;-74
2022/08/22 04:41:45;;;;;;;;;;;;;;;;;;5077814;28;1914;-74
2022/08/22 04:44:13;;;;;;;;;;;;;;;;;;5099357;28;1091;-74
2022/08/22 04:46:41;;;;;;;;;;;;;;;;;;5094639;28;1390;-74
2022/08/22 04:49:07;;;;;;;;;;;;;;;;;;5073897;28;1135;-74
2022/08/22 04:51:35;;;;;;;;;;;;;;;;;;5081915;28;1350;-73
2022/08/22 04:54:19;;;;;;;;;;;;;;;;;;5082063;28;1318;-73
2022/08/22 04:56:51;;;;;;;;;;;;;;;;;;5084260;28;1576;-73
2022/08/22 04:59:17;;;;;;;;;;;;;;;;;;5089659;28;1215;-73
2022/08/22 05:01:46;;;;;;;;;;;;;;;;;;5075962;28;1988;-73
2022/08/22 05:04:13;;;;;;;;;;;;;;;;;;5094215;28;1011;-73
2022/08/22 05:06:40;;;;;;;;;;;;;;;;;;5094259;28;1296;-73
2022/08/22 05:09:07;;;;;;;;;;;;;;;;;;5094092;28;1059;-73
2022/08/22 05:11:33;;;;;;;;;;;;;;;;;;5096427;28;1138;-73
2022/08/22 05:14:02;;;;;;;;;;;;;;;;;;5097499;28;1012;-73
2022/08/22 05:16:30;;;;;;;;;;;;;;;;;;5095762;28;1308;-74
2022/08/22 05:18:57;;;;;;;;;;;;;;;;;;5077163;28;1139;-74
2022/08/22 05:21:24;;;;;;;;;;;;;;;;;;5093555;28;1914;-73
2022/08/22 05:23:51;;;;;;;;;;;;;;;;;;5094060;28;1122;-73
2022/08/22 05:26:17;;;;;;;;;;;;;;;;;;5093758;28;1316;-73
2022/08/22 05:28:44;;;;;;;;;;;;;;;;;;5093965;28;1091;-73
2022/08/22 05:31:13;;;;;;;;;;;;;;;;;;5075312;28;1139;-74
2022/08/22 05:33:40;;;;;;;;;;;;;;;;;;5075294;28;1185;-73
2022/08/22 05:36:08;;;;;;;;;;;;;;;;;;5084518;28;1507;-73
2022/08/22 05:38:35;;;;;;;;;;;;;;;;;;5082610;28;1259;-73
2022/08/22 05:41:01;;;;;;;;;;;;;;;;;;5090064;28;1909;-73
2022/08/22 05:43:28;;;;;;;;;;;;;;;;;;5075314;28;1287;-73
2022/08/22 05:45:54;;;;;;;;;;;;;;;;;;5093205;28;1420;-73
2022/08/22 05:48:22;;;;;;;;;;;;;;;;;;5093534;28;1115;-73
2022/08/22 05:50:49;;;;;;;;;;;;;;;;;;5093445;28;1028;-73
2022/08/22 05:53:17;;;;;;;;;;;;;;;;;;5092865;28;1063;-72
2022/08/22 05:55:46;;;;;;;;;;;;;;;;;;5093490;28;1111;-73
2022/08/22 05:58:17;;;;;;;;;;;;;;;;;;5075212;28;1230;-73
2022/08/22 06:00:46;;;;;;;;;;;;;;;;;;5093515;28;1971;-74
2022/08/22 06:03:13;;;;;;;;;;;;;;;;;;5093139;28;849;-73
2022/08/22 06:05:43;;;;;;;;;;;;;;;;;;5093493;28;1123;-74
2022/08/22 06:08:11;;;;;;;;;;;;;;;;;;5093151;28;1299;-74
2022/08/22 06:10:39;;;;;;;;;;;;;;;;;;5092845;28;801;-74
2022/08/22 06:13:07;;;;;;;;;;;;;;;;;;5092771;28;1098;-74
2022/08/22 06:15:34;;;;;;;;;;;;;;;;;;5092877;28;976;-74
2022/08/22 06:18:01;;;;;;;;;;;;;;;;;;5086947;28;1390;-74
2022/08/22 06:20:28;;;;;;;;;;;;;;;;;;5082669;28;1910;-74
2022/08/22 06:22:57;;;;;;;;;;;;;;;;;;5082557;28;1243;-74
2022/08/22 06:25:24;;;;;;;;;;;;;;;;;;5081585;28;1580;-74
2022/08/22 06:27:51;;;;;;;;;;;;;;;;;;5081997;28;1483;-74
2022/08/22 06:30:17;;;;;;;;;;;;;;;;;;5083060;28;1290;-74
2022/08/22 06:32:44;;;;;;;;;;;;;;;;;;5089386;28;1456;-74
2022/08/22 06:35:11;;;;;;;;;;;;;;;;;;5073942;28;1643;-73
2022/08/22 06:37:38;;;;;;;;;;;;;;;;;;5070446;28;1527;-75
2022/08/22 06:40:07;;;;;;;;;;;;;;;;;;5071291;28;1913;-75
2022/08/22 06:42:33;;;;;;;;;;;;;;;;;;5062122;28;1135;-75
2022/08/22 06:45:01;;;;;;;;;;;;;;;;;;5072070;28;968;-75
2022/08/22 06:47:28;;;;;;;;;;;;;;;;;;5072432;28;1314;-75
2022/08/22 06:49:56;;;;;;;;;;;;;;;;;;5054031;28;1112;-75
2022/08/22 06:52:23;;;;;;;;;;;;;;;;;;5073485;28;1719;-75
2022/08/22 06:54:51;;;;;;;;;;;;;;;;;;5054782;28;1187;-75
2022/08/22 06:57:26;;;;;;;;;;;;;;;;;;5072856;28;1309;-75
2022/08/22 06:59:52;;;;;;;;;;;;;;;;;;5091616;28;917;-75
2022/08/22 07:02:23;;;;;;;;;;;;;;;;;;5091359;28;1977;-75
2022/08/22 07:04:50;;;;;;;;;;;;;;;;;;5091884;28;900;-75
2022/08/22 07:07:17;;;;;;;;;;;;;;;;;;5091486;28;1379;-75
2022/08/22 07:09:43;;;;;;;;;;;;;;;;;;5087997;28;1198;-75
2022/08/22 07:12:10;;;;;;;;;;;;;;;;;;5070802;28;1123;-75
2022/08/22 07:14:40;;;;;;;;;;;;;;;;;;5071532;28;1079;-75
2022/08/22 07:17:08;;;;;;;;;;;;;;;;;;5071040;28;1341;-75
2022/08/22 07:19:35;;;;;;;;;;;;;;;;;;5071207;28;948;-75
2022/08/22 07:22:10;;;;;;;;;;;;;;;;;;5070937;28;1918;-75
2022/08/22 07:24:36;;;;;;;;;;;;;;;;;;5071078;28;1083;-74
2022/08/22 07:27:07;;;;;;;;;;;;;;;;;;5071216;28;1324;-75
2022/08/22 07:29:35;;;;;;;;;;;;;;;;;;5071118;28;897;-75
2022/08/22 07:32:05;;;;;;;;;;;;;;;;;;5070913;28;1032;-75
2022/08/22 07:34:36;;;;;;;;;;;;;;;;;;5071356;28;988;-75
2022/08/22 07:37:04;;;;;;;;;;;;;;;;;;5070822;28;1312;-75
2022/08/22 07:39:31;;;;;;;;;;;;;;;;;;5070937;28;973;-75
2022/08/22 07:41:59;;;;;;;;;;;;;;;;;;5070750;28;1910;-72
2022/08/22 07:44:28;;;;;;;;;;;;;;;;;;5053046;28;1201;-74
2022/08/22 07:46:56;;;;;;;;;;;;;;;;;;5080152;28;1372;-74
2022/08/22 07:49:24;;;;;;;;;;;;;;;;;;5090821;28;1095;-75
2022/08/22 07:51:52;;;;;;;;;;;;;;;;;;5076993;28;1309;-75
2022/08/22 07:54:19;;;;;;;;;;;;;;;;;;5095285;28;1008;-75
2022/08/22 07:56:50;;;;;;;;;;;;;;;;;;5095487;28;1404;-75
2022/08/22 07:59:18;;;;;;;;;;;;;;;;;;5095182;28;829;-75
2022/08/22 08:01:44;;;;;;;;;;;;;;;;;;5094849;28;1964;-75
2022/08/22 08:04:12;;;;;;;;;;;;;;;;;;5095149;28;956;-75
2022/08/22 08:06:40;;;;;;;;;;;;;;;;;;5095018;28;1380;-75
2022/08/22 08:09:06;;;;;;;;;;;;;;;;;;5094573;28;1070;-74
2022/08/22 08:11:33;;;;;;;;;;;;;;;;;;5095149;28;1072;-74
2022/08/22 08:14:00;;;;;;;;;;;;;;;;;;5095151;28;897;-75
2022/08/22 08:16:28;;;;;;;;;;;;;;;;;;5076711;28;1438;-74
2022/08/22 08:18:55;;;;;;;;;;;;;;;;;;5095112;28;995;-75
2022/08/22 08:21:25;;;;;;;;;;;;;;;;;;5098704;28;1886;-74
2022/08/22 08:23:52;;;;;;;;;;;;;;;;;;5100123;28;1074;-75
2022/08/22 08:26:20;;;;;;;;;;;;;;;;;;5095554;28;1515;-72
2022/08/22 08:28:47;;;;;;;;;;;;;;;;;;5074464;28;1593;-75
2022/08/22 08:31:15;;;;;;;;;;;;;;;;;;5074314;28;888;-74
2022/08/22 08:33:42;;;;;;;;;;;;;;;;;;5074164;28;1123;-75
2022/08/22 08:36:12;;;;;;;;;;;;;;;;;;5056314;28;1411;-75
2022/08/22 08:38:39;;;;;;;;;;;;;;;;;;5074163;28;1071;-75
2022/08/22 08:41:14;;;;;;;;;;;;;;;;;;5073855;28;1894;-75
2022/08/22 08:43:43;;;;;;;;;;;;;;;;;;5074388;28;1313;-75
2022/08/22 08:46:14;;;;;;;;;;;;;;;;;;5076596;28;1345;-75
2022/08/22 08:48:46;;;;;;;;;;;;;;;;;;5094224;28;965;-75
2022/08/22 08:51:18;;;;;;;;;;;;;;;;;;5094119;28;1067;-74
2022/08/22 08:54:00;;;;;;;;;;;;;;;;;;5094290;28;984;-75
2022/08/22 08:56:31;;;;;;;;;;;;;;;;;;5094073;28;1324;-75
2022/08/22 08:58:59;;;;;;;;;;;;;;;;;;5086369;28;1302;-75
2022/08/22 09:01:34;;;;;;;;;;;;;;;;;;5072658;28;1914;-75
2022/08/22 09:04:13;;;;;;;;;;;;;;;;;;5073924;28;1123;-75
2022/08/22 09:06:45;;;;;;;;;;;;;;;;;;5073708;28;1316;-75
2022/08/22 09:09:13;;;;;;;;;;;;;;;;;;5073316;28;842;-75
2022/08/22 09:12:03;;;;;;;;;;;;;;;;;;5073465;28;1134;-74
2022/08/22 09:14:44;;;;;;;;;;;;;;;;;;5053120;28;1120;-74
2022/08/22 09:17:18;;;;;;;;;;;;;;;;;;5073237;28;1325;-74
2022/08/22 09:20:08;;;;;;;;;;;;;;;;;;5073533;28;949;-75
2022/08/22 09:22:55;;;;;;;;;;;;;;;;;;5073237;28;1981;-75
2022/08/22 09:25:22;;;;;;;;;;;;;;;;;;5038915;28;1448;-75
2022/08/22 09:27:50;;;;;;;;;;;;;;;;;;5073648;28;1308;-74
2022/08/22 09:30:19;;;;;;;;;;;;;;;;;;5073205;28;857;-74
2022/08/22 09:32:47;;;;;;;;;;;;;;;;;;5081755;28;1353;-74
2022/08/22 09:35:16;;;;;;;;;;;;;;;;;;5085438;28;1386;-75
2022/08/22 09:37:46;;;;;;;;;;;;;;;;;;5084902;28;1314;-74
2022/08/22 09:40:14;;;;;;;;;;;;;;;;;;5075489;28;1199;-74
2022/08/22 09:42:41;;;;;;;;;;;;;;;;;;5083591;28;1919;-74
2022/08/22 09:45:26;;;;;;;;;;;;;;;;;;5093232;28;1114;-74
2022/08/22 09:47:56;;;;;;;;;;;;;;;;;;5075902;28;1432;-75
2022/08/22 09:50:23;;;;;;;;;;;;;;;;;;5072710;28;889;-75
2022/08/22 09:52:52;;;;;;;;;;;;;;;;;;5072651;28;1059;-74
2022/08/22 09:55:20;;;;;;;;;;;;;;;;;;5072711;28;736;-75
2022/08/22 09:57:47;;;;;;;;;;;;;;;;;;5072586;28;1290;-75
2022/08/22 10:00:18;;;;;;;;;;;;;;;;;;5072593;28;1107;-75
2022/08/22 10:02:46;;;;;;;;;;;;;;;;;;5054318;28;1922;-75
2022/08/22 10:05:15;;;;;;;;;;;;;;;;;;5072455;28;1052;-75
2022/08/22 10:07:57;;;;;;;;;;;;;;;;;;5089741;22;2071;-75
2022/08/22 10:10:25;;;;;;;;;;;;;;;;;;5087395;28;1074;-77
2022/08/22 10:12:52;;;;;;;;;;;;;;;;;;5090772;28;762;-76
2022/08/22 10:15:19;;;;;;;;;;;;;;;;;;5092548;28;897;-76
2022/08/22 10:17:48;;;;;;;;;;;;;;;;;;5092588;28;1414;-74
2022/08/22 10:20:18;;;;;;;;;;;;;;;;;;5074217;28;1203;-74
2022/08/22 10:22:46;;;;;;;;;;;;;;;;;;5054187;28;1918;-76
2022/08/22 10:25:24;;;;;;;;;;;;;;;;;;5034140;28;1123;-75
2022/08/22 10:27:53;;;;;;;;;;;;;;;;;;5056810;28;1752;-75
2022/08/22 10:30:20;;;;;;;;;;;;;;;;;;5071460;28;1090;-76
2022/08/22 10:32:47;;;;;;;;;;;;;;;;;;5071667;28;1020;-74
2022/08/22 10:35:24;;;;;;;;;;;;;;;;;;5072080;28;857;-73
2022/08/22 10:37:53;;;;;;;;;;;;;;;;;;5073607;28;1274;-75
2022/08/22 10:40:21;;;;;;;;;;;;;;;;;;5054502;28;1037;-76
2022/08/22 10:42:49;;;;;;;;;;;;;;;;;;5072630;28;1914;-75
2022/08/22 10:45:17;;;;;;;;;;;;;;;;;;5053738;28;1143;-75
2022/08/22 10:47:44;;;;;;;;;;;;;;;;;;5055909;28;1406;-75
2022/08/22 10:50:12;;;;;;;;;;;;;;;;;;5051636;28;775;-76
2022/08/22 10:52:41;;;;;;;;;;;;;;;;;;5051505;28;1012;-76
2022/08/22 10:55:11;;;;;;;;;;;;;;;;;;5033861;28;1253;-75
2022/08/22 10:57:46;;;;;;;;;;;;;;;;;;5051698;28;1415;-75
2022/08/22 11:00:17;;;;;;;;;;;;;;;;;;5033520;28;1195;-76
2022/08/22 11:02:48;;;;;;;;;;;;;;;;;;5051311;28;1914;-76
2022/08/22 11:05:32;;;;;;;;;;;;;;;;;;5033630;28;1446;-76
2022/08/22 11:08:05;;;;;;;;;;;;;;;;;;5051227;28;1468;-75
2022/08/22 11:10:34;;;;;;;;;;;;;;;;;;5033731;28;838;-75
2022/08/22 11:13:04;;;;;;;;;;;;;;;;;;5033095;28;1376;-76
2022/08/22 11:15:43;;;;;;;;;;;;;;;;;;5051485;28;668;-75
2022/08/22 11:18:14;;;;;;;;;;;;;;;;;;5050843;28;1266;-75
2022/08/22 11:20:43;;;;;;;;;;;;;;;;;;5033656;28;1591;-76
2022/08/22 11:23:14;;;;;;;;;;;;;;;;;;5050771;28;1922;-76
2022/08/22 11:25:50;;;;;;;;;;;;;;;;;;5033331;28;1132;-76
2022/08/22 11:28:30;;;;;;;;;;;;;;;;;;5050811;28;1407;-75
2022/08/22 11:31:02;;;;;;;;;;;;;;;;;;5033105;28;1112;-75
2022/08/22 11:33:29;;;;;;;;;;;;;;;;;;5050895;28;1095;-76
2022/08/22 11:35:56;;;;;;;;;;;;;;;;;;5050911;28;1306;-76
2022/08/22 11:38:24;;;;;;;;;;;;;;;;;;5033071;28;1295;-77
2022/08/22 11:40:53;;;;;;;;;;;;;;;;;;5051358;28;1384;-76
2022/08/22 11:43:27;;;;;;;;;;;;;;;;;;5056506;28;1922;-76
2022/08/22 11:45:56;;;;;;;;;;;;;;;;;;5044884;28;1391;-75
2022/08/22 11:48:23;;;;;;;;;;;;;;;;;;5050598;28;1416;-76
2022/08/22 11:50:50;;;;;;;;;;;;;;;;;;5050870;28;917;-76
2022/08/22 11:53:18;;;;;;;;;;;;;;;;;;5032790;28;1283;-75
2022/08/22 11:55:48;;;;;;;;;;;;;;;;;;5050862;28;1123;-75
2022/08/22 11:58:21;;;;;;;;;;;;;;;;;;5050452;28;1321;-76
2022/08/22 12:00:49;;;;;;;;;;;;;;;;;;5050914;28;1076;-75
2022/08/22 12:03:18;;;;;;;;;;;;;;;;;;5050146;28;1899;-75
2022/08/22 12:05:44;;;;;;;;;;;;;;;;;;5051035;28;1107;-79
2022/08/22 12:08:11;;;;;;;;;;;;;;;;;;5050343;28;1285;-76
2022/08/22 12:10:38;;;;;;;;;;;;;;;;;;5051580;28;1134;-76
2022/08/22 12:13:06;;;;;;;;;;;;;;;;;;5050467;28;1071;-77
2022/08/22 12:15:35;;;;;;;;;;;;;;;;;;5050547;28;1488;-76
2022/08/22 12:18:10;;;;;;;;;;;;;;;;;;5067567;28;1488;-77
2022/08/22 12:20:51;;;;;;;;;;;;;;;;;;5068208;28;1227;-76
2022/08/22 12:23:24;;;;;;;;;;;;;;;;;;5050319;28;1914;-74
2022/08/22 12:25:54;;;;;;;;;;;;;;;;;;5050844;28;957;-76
2022/08/22 12:28:26;;;;;;;;;;;;;;;;;;5049969;28;1346;-76
2022/08/22 12:30:54;;;;;;;;;;;;;;;;;;5050632;28;1075;-76
2022/08/22 12:33:26;;;;;;;;;;;;;;;;;;5050002;28;1135;-75
2022/08/22 12:35:55;;;;;;;;;;;;;;;;;;5051189;28;1135;-75
2022/08/22 12:38:25;;;;;;;;;;;;;;;;;;5053853;28;1334;-76
2022/08/22 12:40:55;;;;;;;;;;;;;;;;;;5054622;28;1109;-75
2022/08/22 12:43:27;;;;;;;;;;;;;;;;;;5063184;28;1910;-75
2022/08/22 12:46:03;;;;;;;;;;;;;;;;;;5062677;28;1323;-74
2022/08/22 12:48:35;;;;;;;;;;;;;;;;;;5062327;28;1490;-76
2022/08/22 12:51:03;;;;;;;;;;;;;;;;;;5062172;28;1252;-76
2022/08/22 12:53:45;;;;;;;;;;;;;;;;;;5063092;28;1302;-76
2022/08/22 12:56:15;;;;;;;;;;;;;;;;;;5063414;28;1284;-75
2022/08/22 12:58:45;;;;;;;;;;;;;;;;;;5062001;28;1479;-76
2022/08/22 13:01:12;;;;;;;;;;;;;;;;;;5062322;28;1342;-74
2022/08/22 13:03:40;;;;;;;;;;;;;;;;;;5064559;28;1918;-75
2022/08/22 13:06:22;;;;;;;;;;;;;;;;;;5052677;28;1345;-75
2022/08/22 13:08:48;;;;;;;;;;;;;;;;;;5053448;28;1340;-75
2022/08/22 13:11:15;;;;;;;;;;;;;;;;;;5053197;28;1060;-77
2022/08/22 13:13:41;;;;;;;;;;;;;;;;;;5035877;28;1325;-74
2022/08/22 13:16:09;;;;;;;;;;;;;;;;;;5035973;28;1270;-76
2022/08/22 13:18:37;;;;;;;;;;;;;;;;;;5035135;28;1463;-76
2022/08/22 13:21:04;;;;;;;;;;;;;;;;;;5053332;28;960;-75
2022/08/22 13:23:31;;;;;;;;;;;;;;;;;;5053044;28;1910;-75
2022/08/22 13:25:59;;;;;;;;;;;;;;;;;;5053405;28;1156;-75
2022/08/22 13:28:26;;;;;;;;;;;;;;;;;;5052793;28;1330;-75
2022/08/22 13:30:52;;;;;;;;;;;;;;;;;;5052277;28;1271;-76
2022/08/22 13:33:23;;;;;;;;;;;;;;;;;;5052581;28;1223;-75
2022/08/22 13:35:50;;;;;;;;;;;;;;;;;;5035643;28;827;-76
2022/08/22 13:38:17;;;;;;;;;;;;;;;;;;5034998;28;1332;-75
2022/08/22 13:40:44;;;;;;;;;;;;;;;;;;5053438;28;941;-75
2022/08/22 13:43:10;;;;;;;;;;;;;;;;;;5034784;28;1984;-75
2022/08/22 13:45:37;;;;;;;;;;;;;;;;;;5052775;28;1136;-75
2022/08/22 13:48:07;;;;;;;;;;;;;;;;;;5051053;28;1506;-75
2022/08/22 13:50:35;;;;;;;;;;;;;;;;;;5051892;28;1248;-75
2022/08/22 13:53:02;;;;;;;;;;;;;;;;;;5063040;28;1439;-75
2022/08/22 13:55:29;;;;;;;;;;;;;;;;;;5062077;28;1309;-74
2022/08/22 13:57:58;;;;;;;;;;;;;;;;;;5061680;28;1458;-74
2022/08/22 14:00:56;;;;;;;;;;;;;;;;;;5063352;28;1531;-76
2022/08/22 14:03:22;;;;;;;;;;;;;;;;;;5054295;28;1982;-77
2022/08/22 14:05:51;;;;;;;;;;;;;;;;;;5054832;28;1156;-76
2022/08/22 14:08:18;;;;;;;;;;;;;;;;;;5071803;28;1436;-76
2022/08/22 14:10:45;;;;;;;;;;;;;;;;;;5072476;28;1083;-76
2022/08/22 14:13:30;;;;;;;;;;;;;;;;;;5054248;28;1481;-76
2022/08/22 14:15:58;;;;;;;;;;;;;;;;;;5072041;28;1072;-75
2022/08/22 14:18:25;;;;;;;;;;;;;;;;;;5071841;28;1332;-75
2022/08/22 14:20:52;;;;;;;;;;;;;;;;;;5069836;28;1526;-76
2022/08/22 14:23:22;;;;;;;;;;;;;;;;;;5052335;28;1918;-76
2022/08/22 14:25:48;;;;;;;;;;;;;;;;;;5052604;28;865;-76
2022/08/22 14:28:20;;;;;;;;;;;;;;;;;;5069978;28;1397;-76
2022/08/22 14:30:51;;;;;;;;;;;;;;;;;;5072130;28;807;-79
2022/08/22 14:33:18;;;;;;;;;;;;;;;;;;5071763;28;1063;-76
2022/08/22 14:35:45;;;;;;;;;;;;;;;;;;5072018;28;775;-76
2022/08/22 14:38:19;;;;;;;;;;;;;;;;;;5053618;28;1418;-76
2022/08/22 14:40:45;;;;;;;;;;;;;;;;;;5071931;28;990;-76
2022/08/22 14:43:16;;;;;;;;;;;;;;;;;;5071493;28;1910;-76
2022/08/22 14:45:42;;;;;;;;;;;;;;;;;;5071833;28;1060;-76
2022/08/22 14:48:09;;;;;;;;;;;;;;;;;;5052132;28;1334;-79
2022/08/22 14:50:38;;;;;;;;;;;;;;;;;;5034337;28;1118;-76
2022/08/22 14:53:05;;;;;;;;;;;;;;;;;;5051221;28;1325;-76
2022/08/22 14:55:32;;;;;;;;;;;;;;;;;;5033861;28;1240;-76
2022/08/22 14:58:01;;;;;;;;;;;;;;;;;;5051339;28;1387;-76
2022/08/22 15:00:28;;;;;;;;;;;;;;;;;;5033230;28;1225;-76
2022/08/22 15:02:55;;;;;;;;;;;;;;;;;;5051424;28;1907;-77
2022/08/22 15:05:21;;;;;;;;;;;;;;;;;;5033976;28;1231;-76
2022/08/22 15:07:52;;;;;;;;;;;;;;;;;;5051006;28;1326;-75
2022/08/22 15:10:20;;;;;;;;;;;;;;;;;;5033368;28;1107;-76
2022/08/22 15:12:48;;;;;;;;;;;;;;;;;;5051338;28;1001;-75
2022/08/22 15:15:15;;;;;;;;;;;;;;;;;;5033536;28;1169;-76
2022/08/22 15:17:43;;;;;;;;;;;;;;;;;;5051120;28;1414;-75
2022/08/22 15:20:14;;;;;;;;;;;;;;;;;;5051163;28;1067;-76
2022/08/22 15:22:42;;;;;;;;;;;;;;;;;;5051077;28;1146;-76
2022/08/22 15:25:12;;;;;;;;;;;;;;;;;;5032812;28;1914;-76
2022/08/22 15:27:42;;;;;;;;;;;;;;;;;;5051011;28;1305;-76
2022/08/22 15:30:11;;;;;;;;;;;;;;;;;;5050963;28;1047;-75
2022/08/22 15:32:38;;;;;;;;;;;;;;;;;;5050904;28;1052;-75
2022/08/22 15:35:05;;;;;;;;;;;;;;;;;;5051343;28;992;-76
2022/08/22 15:37:32;;;;;;;;;;;;;;;;;;5050965;28;1404;-75
2022/08/22 15:40:09;;;;;;;;;;;;;;;;;;5050915;28;1115;-74
2022/08/22 15:42:36;;;;;;;;;;;;;;;;;;5050831;28;1076;-75
2022/08/22 15:45:02;;;;;;;;;;;;;;;;;;5050817;28;1981;-76
2022/08/22 15:47:33;;;;;;;;;;;;;;;;;;5057947;28;1476;-75
2022/08/22 15:50:00;;;;;;;;;;;;;;;;;;5063128;28;1251;-74
2022/08/22 15:52:27;;;;;;;;;;;;;;;;;;5070528;28;1773;-76
2022/08/22 15:55:08;;;;;;;;;;;;;;;;;;5071150;28;1119;-74
2022/08/22 15:57:34;;;;;;;;;;;;;;;;;;5029323;28;1357;-76
2022/08/22 16:00:01;;;;;;;;;;;;;;;;;;5050631;28;949;-76
2022/08/22 16:02:33;;;;;;;;;;;;;;;;;;5057941;28;1749;-75
2022/08/22 16:05:02;;;;;;;;;;;;;;;;;;5052881;28;1981;-74
2022/08/22 16:07:37;;;;;;;;;;;;;;;;;;5068222;28;1323;-75
2022/08/22 16:10:04;;;;;;;;;;;;;;;;;;5071245;28;1024;-77
2022/08/22 16:12:32;;;;;;;;;;;;;;;;;;5109016;22;4230;-74
2022/08/22 16:14:58;;;;;;;;;;;;;;;;;;5105832;28;1092;-74
2022/08/22 16:17:48;;;;;;;;;;;;;;;;;;5115650;28;1249;-74
2022/08/22 16:20:33;;;;;;;;;;;;;;;;;;5091736;28;2727;-74
2022/08/22 16:23:07;;;;;;;;;;;;;;;;;;5115295;28;1289;-74
2022/08/22 16:25:52;;;;;;;;;;;;;;;;;;5115575;28;1118;-75
2022/08/22 16:28:19;;;;;;;;;;;;;;;;;;5115369;28;893;-74
2022/08/22 16:30:45;;;;;;;;;;;;;;;;;;5115649;28;821;-74
2022/08/22 16:33:11;;;;;;;;;;;;;;;;;;5114813;28;1411;-74
2022/08/22 16:35:56;;;;;;;;;;;;;;;;;;5115598;28;833;-74
2022/08/22 16:38:25;;;;;;;;;;;;;;;;;;5114876;28;1174;-74
2022/08/22 16:40:51;;;;;;;;;;;;;;;;;;5097078;28;1234;-74
2022/08/22 16:43:18;;;;;;;;;;;;;;;;;;5095551;28;1987;-74
2022/08/22 16:45:44;;;;;;;;;;;;;;;;;;5103188;28;1588;-75
2022/08/22 16:48:23;;;;;;;;;;;;;;;;;;5092964;28;913;-75
2022/08/22 16:51:00;;;;;;;;;;;;;;;;;;5072983;28;758;-73
2022/08/22 16:53:44;;;;;;;;;;;;;;;;;;5103119;28;1540;-74
2022/08/22 16:56:14;;;;;;;;;;;;;;;;;;5104175;27;1285;-75
2022/08/22 16:58:47;;;;;;;;;;;;;;;;;;5091624;28;1390;-74
2022/08/22 17:01:15;;;;;;;;;;;;;;;;;;5091538;28;1391;-73
2022/08/22 17:03:44;;;;;;;;;;;;;;;;;;5112467;28;1918;-74
2022/08/22 17:06:15;;;;;;;;;;;;;;;;;;5111376;28;1361;-74
2022/08/22 17:08:45;;;;;;;;;;;;;;;;;;5112711;28;1101;-73
2022/08/22 17:11:17;;;;;;;;;;;;;;;;;;5111726;28;1373;-74
2022/08/22 17:14:04;;;;;;;;;;;;;;;;;;5115537;27;1513;-74
2022/08/22 17:16:33;;;;;;;;;;;;;;;;;;5090989;28;1137;-74
2022/08/22 17:19:03;;;;;;;;;;;;;;;;;;5114717;28;949;-73
2022/08/22 17:21:30;;;;;;;;;;;;;;;;;;5113696;28;1099;-74
2022/08/22 17:23:59;;;;;;;;;;;;;;;;;;5096152;28;1914;-74
2022/08/22 17:26:30;;;;;;;;;;;;;;;;;;5111092;28;1461;-74